createdAt,value
2019-05-11T00:01:30.290Z,4.30
2019-05-11T00:03:58.954Z,4.30
2019-05-11T00:06:27.575Z,3.97
2019-05-11T00:08:56.398Z,3.87
2019-05-11T00:11:25.064Z,3.73
2019-05-11T00:13:53.644Z,4.17
2019-05-11T00:16:22.263Z,4.00
2019-05-11T00:18:50.885Z,3.90
2019-05-11T00:21:19.469Z,3.30
2019-05-11T00:23:48.208Z,3.60
2019-05-11T00:26:16.707Z,3.67
2019-05-11T00:28:45.276Z,3.80
2019-05-11T00:31:14.191Z,3.70
2019-05-11T00:33:42.846Z,3.23
2019-05-11T00:36:11.543Z,3.40
2019-05-11T00:38:40.123Z,4.00
2019-05-11T00:41:08.715Z,4.27
2019-05-11T00:43:37.331Z,3.50
2019-05-11T00:46:06.019Z,3.23
2019-05-11T00:48:34.648Z,3.33
2019-05-11T00:51:03.387Z,3.97
2019-05-11T00:53:32.179Z,3.70
2019-05-11T00:56:00.742Z,4.00
2019-05-11T00:58:29.311Z,4.07
2019-05-11T01:00:58.007Z,3.63
2019-05-11T01:03:26.579Z,3.73
2019-05-11T01:05:55.291Z,4.10
2019-05-11T01:08:23.840Z,4.20
2019-05-11T01:10:52.416Z,3.73
2019-05-11T01:13:21.235Z,3.83
2019-05-11T01:15:49.843Z,4.60
2019-05-11T01:18:27.369Z,3.83
2019-05-11T01:20:56.004Z,4.00
2019-05-11T01:23:24.564Z,3.80
2019-05-11T01:25:53.141Z,3.83
2019-05-11T01:28:21.871Z,4.20
2019-05-11T01:30:50.491Z,4.13
2019-05-11T01:33:19.066Z,3.80
2019-05-11T01:35:51.001Z,4.00
2019-05-11T01:38:18.051Z,3.97
2019-05-11T01:40:58.021Z,3.90
2019-05-11T01:43:16.948Z,3.80
2019-05-11T01:45:45.513Z,3.77
2019-05-11T01:48:14.138Z,3.70
2019-05-11T01:50:42.742Z,4.10
2019-05-11T01:53:11.292Z,3.90
2019-05-11T01:55:39.894Z,3.53
2019-05-11T01:58:08.488Z,3.53
2019-05-11T02:00:38.054Z,3.90
2019-05-11T02:03:06.666Z,4.07
2019-05-11T02:05:35.291Z,4.00
2019-05-11T02:08:04.007Z,3.77
2019-05-11T02:10:32.758Z,3.50
2019-05-11T02:13:01.330Z,3.90
2019-05-11T02:15:30.060Z,3.50
2019-05-11T02:17:58.646Z,4.00
2019-05-11T02:20:27.411Z,3.70
2019-05-11T02:22:56.036Z,3.50
2019-05-11T02:25:24.645Z,3.67
2019-05-11T02:27:53.507Z,3.43
2019-05-11T02:30:22.136Z,3.27
2019-05-11T02:32:50.824Z,3.80
2019-05-11T02:35:19.578Z,3.37
2019-05-11T02:37:48.148Z,3.43
2019-05-11T02:40:17.472Z,3.43
2019-05-11T02:42:46.111Z,3.60
2019-05-11T02:45:15.253Z,3.40
2019-05-11T02:47:43.896Z,3.80
2019-05-11T02:50:14.141Z,3.43
2019-05-11T02:52:42.979Z,3.60
2019-05-11T02:55:11.980Z,3.60
2019-05-11T02:57:40.656Z,3.93
2019-05-11T03:00:10.948Z,3.87
2019-05-11T03:02:39.524Z,4.17
2019-05-11T03:05:08.345Z,3.80
2019-05-11T03:07:36.912Z,4.13
2019-05-11T03:10:06.342Z,3.83
2019-05-11T03:12:34.921Z,3.93
2019-05-11T03:15:04.776Z,3.70
2019-05-11T03:17:34.052Z,4.13
2019-05-11T03:20:02.618Z,4.30
2019-05-11T03:22:31.235Z,3.40
2019-05-11T03:24:59.785Z,3.77
2019-05-11T03:27:28.615Z,3.63
2019-05-11T03:30:00.804Z,3.70
2019-05-11T03:32:27.549Z,4.17
2019-05-11T03:34:56.139Z,3.83
2019-05-11T03:37:24.708Z,4.07
2019-05-11T03:39:53.338Z,4.30
2019-05-11T03:42:22.015Z,4.40
2019-05-11T03:44:50.648Z,4.00
2019-05-11T03:47:19.245Z,4.27
2019-05-11T03:49:47.811Z,4.23
2019-05-11T03:52:16.549Z,4.27
2019-05-11T03:54:45.198Z,3.90
2019-05-11T03:57:13.814Z,4.00
2019-05-11T03:59:42.585Z,4.30
2019-05-11T04:02:11.134Z,4.20
2019-05-11T04:04:39.698Z,4.13
2019-05-11T04:07:08.274Z,4.03
2019-05-11T04:09:36.916Z,4.13
2019-05-11T04:12:05.522Z,3.97
2019-05-11T04:14:34.094Z,4.13
2019-05-11T04:17:02.811Z,4.13
2019-05-11T04:19:31.396Z,3.57
2019-05-11T04:22:00.103Z,4.27
2019-05-11T04:24:28.724Z,3.90
2019-05-11T04:26:57.444Z,3.73
2019-05-11T04:29:26.097Z,3.60
2019-05-11T04:31:57.658Z,3.97
2019-05-11T04:34:25.937Z,3.90
2019-05-11T04:36:54.667Z,3.80
2019-05-11T04:39:23.310Z,3.60
2019-05-11T04:41:53.926Z,3.97
2019-05-11T04:44:22.267Z,3.83
2019-05-11T04:46:50.815Z,4.17
2019-05-11T04:49:19.459Z,4.37
2019-05-11T04:51:48.123Z,3.80
2019-05-11T04:54:16.823Z,4.27
2019-05-11T04:56:45.460Z,3.90
2019-05-11T04:59:14.058Z,4.30
2019-05-11T05:01:42.633Z,4.50
2019-05-11T05:04:14.402Z,4.17
2019-05-11T05:06:41.943Z,4.00
2019-05-11T05:09:10.597Z,3.83
2019-05-11T05:11:39.139Z,3.90
2019-05-11T05:14:08.682Z,3.53
2019-05-11T05:16:37.966Z,3.70
2019-05-11T05:19:06.675Z,4.00
2019-05-11T05:21:35.328Z,4.30
2019-05-11T05:24:03.964Z,3.97
2019-05-11T05:26:32.521Z,4.10
2019-05-11T05:29:01.233Z,3.70
2019-05-11T05:31:29.905Z,3.90
2019-05-11T05:34:01.369Z,3.87
2019-05-11T05:36:28.874Z,3.70
2019-05-11T05:38:57.433Z,3.03
2019-05-11T05:41:26.065Z,3.60
2019-05-11T05:43:54.674Z,3.30
2019-05-11T05:46:23.272Z,3.60
2019-05-11T05:48:51.926Z,3.50
2019-05-11T05:51:20.760Z,3.57
2019-05-11T05:53:49.305Z,3.80
2019-05-11T05:56:17.963Z,4.07
2019-05-11T05:58:46.640Z,4.10
2019-05-11T06:01:15.198Z,3.67
2019-05-11T06:03:43.738Z,3.50
2019-05-11T06:06:12.368Z,3.50
2019-05-11T06:08:43.202Z,3.40
2019-05-11T06:11:11.222Z,3.20
2019-05-11T06:13:45.415Z,3.37
2019-05-11T06:16:10.102Z,3.00
2019-05-11T06:18:38.664Z,3.47
2019-05-11T06:21:07.270Z,2.90
2019-05-11T06:23:35.897Z,3.37
2019-05-11T06:26:04.614Z,3.50
2019-05-11T06:28:33.180Z,3.20
2019-05-11T06:31:01.809Z,3.23
2019-05-11T06:33:30.369Z,2.83
2019-05-11T06:35:58.968Z,3.03
2019-05-11T06:38:27.520Z,2.83
2019-05-11T06:40:56.131Z,3.03
2019-05-11T06:43:24.817Z,2.80
2019-05-11T06:45:53.492Z,2.73
2019-05-11T06:48:22.058Z,2.80
2019-05-11T06:50:50.658Z,2.73
2019-05-11T06:53:19.235Z,2.67
2019-05-11T06:55:47.794Z,3.07
2019-05-11T06:58:16.389Z,2.53
2019-05-11T07:00:44.984Z,2.60
2019-05-11T07:03:13.901Z,2.70
2019-05-11T07:05:42.617Z,2.30
2019-05-11T07:08:11.179Z,2.70
2019-05-11T07:10:39.815Z,2.73
2019-05-11T07:13:08.414Z,2.57
2019-05-11T07:15:36.976Z,2.50
2019-05-11T07:18:05.529Z,2.40
2019-05-11T07:20:49.178Z,2.50
2019-05-11T07:23:04.469Z,2.77
2019-05-11T07:25:33.193Z,3.27
2019-05-11T07:28:02.265Z,2.90
2019-05-11T07:30:31.083Z,2.90
2019-05-11T07:33:00.967Z,2.50
2019-05-11T07:35:30.179Z,2.93
2019-05-11T07:37:58.748Z,2.90
2019-05-11T07:40:27.940Z,2.70
2019-05-11T07:42:58.884Z,3.10
2019-05-11T07:45:28.329Z,2.87
2019-05-11T07:47:59.027Z,2.30
2019-05-11T07:50:28.376Z,2.30
2019-05-11T07:52:58.893Z,3.17
2019-05-11T07:55:28.216Z,2.90
2019-05-11T07:57:58.567Z,2.20
2019-05-11T08:00:28.187Z,2.30
2019-05-11T08:02:58.542Z,2.00
2019-05-11T08:05:28.336Z,2.93
2019-05-11T08:07:59.509Z,2.40
2019-05-11T08:10:28.247Z,2.50
2019-05-11T08:12:58.712Z,2.20
2019-05-11T08:15:28.382Z,2.40
2019-05-11T08:17:57.853Z,2.20
2019-05-11T08:20:28.038Z,2.33
2019-05-11T08:22:58.677Z,1.97
2019-05-11T08:25:28.700Z,2.10
2019-05-11T08:27:58.823Z,2.07
2019-05-11T08:30:27.982Z,1.97
2019-05-11T08:32:58.275Z,2.10
2019-05-11T08:35:30.919Z,2.07
2019-05-11T08:37:58.147Z,1.90
2019-05-11T08:40:28.913Z,1.97
2019-05-11T08:42:58.330Z,2.27
2019-05-11T08:45:28.014Z,2.20
2019-05-11T08:47:58.009Z,2.13
2019-05-11T08:50:27.897Z,1.97
2019-05-11T08:52:58.114Z,1.90
2019-05-11T08:55:29.007Z,1.77
2019-05-11T08:57:58.557Z,1.87
2019-05-11T09:00:28.368Z,2.47
2019-05-11T09:02:58.293Z,1.70
2019-05-11T09:05:28.037Z,1.77
2019-05-11T09:07:57.736Z,1.70
2019-05-11T09:10:28.111Z,1.60
2019-05-11T09:12:58.981Z,1.77
2019-05-11T09:15:36.938Z,1.60
2019-05-11T09:17:57.824Z,1.50
2019-05-11T09:20:28.519Z,1.90
2019-05-11T09:22:58.906Z,1.60
2019-05-11T09:25:27.799Z,1.50
2019-05-11T09:27:58.499Z,2.00
2019-05-11T09:30:28.615Z,2.17
2019-05-11T09:32:58.119Z,1.87
2019-05-11T09:35:29.049Z,1.87
2019-05-11T09:37:58.772Z,1.80
2019-05-11T09:40:28.415Z,1.90
2019-05-11T09:42:58.565Z,1.50
2019-05-11T09:45:27.872Z,1.40
2019-05-11T09:47:58.287Z,1.50
2019-05-11T09:50:28.327Z,1.53
2019-05-11T09:52:58.096Z,1.67
2019-05-11T09:55:28.243Z,1.50
2019-05-11T09:57:58.002Z,1.70
2019-05-11T10:00:28.256Z,1.43
2019-05-11T10:02:57.725Z,1.10
2019-05-11T10:05:28.620Z,1.23
2019-05-11T10:07:58.889Z,1.60
2019-05-11T10:10:28.898Z,1.70
2019-05-11T10:12:59.039Z,1.73
2019-05-11T10:15:28.070Z,2.13
2019-05-11T10:17:58.343Z,1.63
2019-05-11T10:20:28.666Z,2.20
2019-05-11T10:22:57.951Z,1.83
2019-05-11T10:25:28.707Z,1.70
2019-05-11T10:27:58.009Z,1.50
2019-05-11T10:30:28.021Z,1.17
2019-05-11T10:32:57.898Z,1.30
2019-05-11T10:35:28.164Z,1.37
2019-05-11T10:37:58.321Z,0.83
2019-05-11T10:40:28.165Z,0.63
2019-05-11T10:42:58.932Z,0.60
2019-05-11T10:45:28.544Z,0.67
2019-05-11T10:48:00.380Z,0.60
2019-05-11T10:50:28.805Z,1.00
2019-05-11T10:52:59.053Z,0.60
2019-05-11T10:55:28.035Z,0.80
2019-05-11T10:57:58.085Z,0.70
2019-05-11T11:00:28.262Z,0.50
2019-05-11T11:02:58.164Z,0.80
2019-05-11T11:05:27.937Z,1.10
2019-05-11T11:07:58.648Z,1.00
2019-05-11T11:10:28.638Z,0.70
2019-05-11T11:12:57.789Z,1.00
2019-05-11T11:15:28.756Z,0.80
2019-05-11T11:17:57.872Z,0.70
2019-05-11T11:20:27.985Z,0.90
2019-05-11T11:22:58.357Z,0.93
2019-05-11T11:25:28.389Z,1.10
2019-05-11T11:27:57.813Z,0.87
2019-05-11T11:30:28.555Z,0.90
2019-05-11T11:32:58.810Z,1.20
2019-05-11T11:35:27.873Z,0.93
2019-05-11T11:37:58.489Z,0.90
2019-05-11T11:40:28.154Z,0.87
2019-05-11T11:42:58.079Z,1.30
2019-05-11T11:45:28.754Z,2.30
2019-05-11T11:47:58.113Z,1.20
2019-05-11T11:50:28.358Z,1.10
2019-05-11T11:52:57.846Z,1.17
2019-05-11T11:55:28.806Z,2.13
2019-05-11T11:57:58.933Z,0.70
2019-05-11T12:00:28.850Z,0.70
2019-05-11T12:02:57.991Z,0.40
2019-05-11T12:05:28.274Z,0.70
2019-05-11T12:07:58.028Z,0.80
2019-05-11T12:10:28.754Z,0.60
2019-05-11T12:12:58.083Z,0.53
2019-05-11T12:15:28.328Z,0.70
2019-05-11T12:17:58.757Z,0.50
2019-05-11T12:20:28.674Z,0.70
2019-05-11T12:22:58.120Z,0.63
2019-05-11T12:25:27.724Z,0.70
2019-05-11T12:27:57.720Z,0.80
2019-05-11T12:30:28.541Z,0.87
2019-05-11T12:32:57.739Z,0.97
2019-05-11T12:35:28.424Z,1.00
2019-05-11T12:37:58.511Z,0.70
2019-05-11T12:40:28.210Z,0.60
2019-05-11T12:42:58.992Z,0.50
2019-05-11T12:45:29.381Z,0.50
2019-05-11T12:47:58.683Z,0.30
2019-05-11T12:50:28.647Z,0.57
2019-05-11T12:52:58.835Z,0.30
2019-05-11T12:55:28.642Z,0.30
2019-05-11T12:57:58.049Z,0.83
2019-05-11T13:00:30.965Z,0.30
2019-05-11T13:02:58.712Z,0.40
2019-05-11T13:05:28.532Z,0.50
2019-05-11T13:07:58.586Z,0.30
2019-05-11T13:10:28.289Z,0.50
2019-05-11T13:12:58.202Z,0.30
2019-05-11T13:15:28.211Z,0.30
2019-05-11T13:17:58.108Z,0.40
2019-05-11T13:20:28.631Z,0.40
2019-05-11T13:22:58.768Z,0.60
2019-05-11T13:25:28.241Z,0.33
2019-05-11T13:27:58.154Z,0.40
2019-05-11T13:30:27.853Z,0.50
2019-05-11T13:32:57.946Z,0.63
2019-05-11T13:35:28.563Z,0.53
2019-05-11T13:37:58.474Z,0.60
2019-05-11T13:40:27.741Z,0.30
2019-05-11T13:42:58.119Z,0.60
2019-05-11T13:45:28.292Z,0.43
2019-05-11T13:47:59.224Z,0.50
2019-05-11T13:50:29.440Z,0.40
2019-05-11T13:52:58.439Z,0.53
2019-05-11T13:55:28.415Z,0.50
2019-05-11T13:57:57.865Z,0.50
2019-05-11T14:00:28.758Z,0.40
2019-05-11T14:02:58.620Z,0.50
2019-05-11T14:05:28.543Z,0.40
2019-05-11T14:07:58.719Z,0.50
2019-05-11T14:10:28.268Z,0.70
2019-05-11T14:12:58.168Z,0.80
2019-05-11T14:15:28.080Z,0.73
2019-05-11T14:18:05.773Z,0.80
2019-05-11T14:20:28.938Z,0.60
2019-05-11T14:22:58.382Z,0.47
2019-05-11T14:25:27.935Z,0.60
2019-05-11T14:27:59.397Z,0.50
2019-05-11T14:30:27.616Z,0.53
2019-05-11T14:32:58.144Z,0.80
2019-05-11T14:35:28.023Z,0.63
2019-05-11T14:37:58.698Z,0.73
2019-05-11T14:40:28.099Z,0.57
2019-05-11T14:42:58.087Z,0.40
2019-05-11T14:45:28.878Z,0.40
2019-05-11T14:47:58.263Z,0.30
2019-05-11T14:50:28.139Z,0.40
2019-05-11T14:52:58.077Z,0.37
2019-05-11T14:55:28.893Z,0.60
2019-05-11T14:57:57.686Z,0.10
2019-05-11T15:00:28.773Z,0.47
2019-05-11T15:02:58.455Z,0.53
2019-05-11T15:05:28.330Z,0.30
2019-05-11T15:07:58.155Z,0.40
2019-05-11T15:10:27.757Z,0.43
2019-05-11T15:12:58.913Z,0.57
2019-05-11T15:15:27.914Z,0.30
2019-05-11T15:17:58.135Z,0.30
2019-05-11T15:20:28.462Z,0.30
2019-05-11T15:22:58.160Z,0.53
2019-05-11T15:25:28.883Z,0.30
2019-05-11T15:27:58.379Z,0.20
2019-05-11T15:30:28.703Z,0.20
2019-05-11T15:33:07.858Z,0.30
2019-05-11T15:35:28.601Z,0.40
2019-05-11T15:37:58.254Z,0.37
2019-05-11T15:40:27.831Z,0.40
2019-05-11T15:42:58.586Z,0.27
2019-05-11T15:45:27.719Z,0.63
2019-05-11T15:47:58.678Z,0.60
2019-05-11T15:50:28.871Z,0.60
2019-05-11T15:52:58.181Z,0.43
2019-05-11T15:55:33.233Z,0.87
2019-05-11T15:58:01.804Z,0.40
2019-05-11T16:00:30.453Z,0.70
2019-05-11T16:02:59.024Z,0.70
2019-05-11T16:05:28.566Z,0.90
2019-05-11T16:07:58.820Z,0.63
2019-05-11T16:10:27.869Z,0.57
2019-05-11T16:12:58.546Z,0.50
2019-05-11T16:15:27.725Z,1.07
2019-05-11T16:17:57.801Z,0.83
2019-05-11T16:20:28.601Z,1.30
2019-05-11T16:22:57.027Z,1.03
2019-05-11T16:25:27.521Z,0.57
2019-05-11T16:27:55.906Z,0.67
2019-05-11T16:30:24.483Z,0.60
2019-05-11T16:32:53.145Z,0.70
2019-05-11T16:35:21.759Z,0.40
2019-05-11T16:37:50.705Z,0.40
2019-05-11T16:40:20.946Z,0.50
2019-05-11T16:42:49.814Z,0.40
2019-05-11T16:45:19.566Z,0.70
2019-05-11T16:47:48.475Z,0.40
2019-05-11T16:50:18.075Z,0.40
2019-05-11T16:52:48.308Z,0.30
2019-05-11T16:55:18.316Z,0.30
2019-05-11T16:57:48.376Z,0.20
2019-05-11T17:00:18.625Z,0.23
2019-05-11T17:02:48.941Z,0.30
2019-05-11T17:05:25.755Z,0.30
2019-05-11T17:07:54.107Z,0.30
2019-05-11T17:10:22.857Z,0.40
2019-05-11T17:12:51.414Z,0.60
2019-05-11T17:15:20.056Z,0.50
2019-05-11T17:17:49.515Z,0.57
2019-05-11T17:20:18.985Z,0.60
2019-05-11T17:22:48.366Z,0.47
2019-05-11T17:25:19.114Z,0.70
2019-05-11T17:27:48.727Z,0.90
2019-05-11T17:30:19.753Z,0.40
2019-05-11T17:32:49.115Z,0.40
2019-05-11T17:35:18.264Z,0.50
2019-05-11T17:37:48.620Z,0.60
2019-05-11T17:40:22.364Z,0.60
2019-05-11T17:42:48.398Z,0.70
2019-05-11T17:45:19.277Z,0.60
2019-05-11T17:47:47.928Z,0.73
2019-05-11T17:50:19.010Z,1.17
2019-05-11T17:52:47.961Z,0.93
2019-05-11T17:55:18.361Z,1.03
2019-05-11T17:57:49.703Z,1.20
2019-05-11T18:00:19.774Z,1.00
2019-05-11T18:02:49.171Z,1.63
2019-05-11T18:05:18.101Z,1.10
2019-05-11T18:07:46.776Z,1.37
2019-05-11T18:10:18.013Z,1.23
2019-05-11T18:12:48.327Z,1.30
2019-05-11T18:15:18.354Z,1.50
2019-05-11T18:17:48.433Z,1.60
2019-05-11T18:20:20.957Z,1.43
2019-05-11T18:22:49.088Z,1.53
2019-05-11T18:25:18.197Z,1.53
2019-05-11T18:27:48.291Z,1.60
2019-05-11T18:30:17.363Z,1.60
2019-05-11T18:32:48.644Z,1.60
2019-05-11T18:35:19.076Z,1.77
2019-05-11T18:37:47.835Z,1.70
2019-05-11T18:40:18.658Z,1.53
2019-05-11T18:42:48.787Z,1.30
2019-05-11T18:45:18.981Z,1.40
2019-05-11T18:47:48.820Z,1.40
2019-05-11T18:50:29.280Z,1.50
2019-05-11T18:52:49.066Z,1.37
2019-05-11T18:55:18.883Z,1.57
2019-05-11T18:57:49.232Z,1.30
2019-05-11T19:00:19.554Z,1.03
2019-05-11T19:02:49.418Z,1.33
2019-05-11T19:05:18.628Z,1.03
2019-05-11T19:07:48.187Z,1.00
2019-05-11T19:10:17.406Z,1.07
2019-05-11T19:12:48.506Z,1.30
2019-05-11T19:15:18.840Z,1.07
2019-05-11T19:17:49.107Z,1.20
2019-05-11T19:20:17.835Z,1.10
2019-05-11T19:22:46.790Z,1.27
2019-05-11T19:25:17.943Z,1.40
2019-05-11T19:27:45.689Z,1.40
2019-05-11T19:30:14.978Z,1.30
2019-05-11T19:32:43.682Z,1.50
2019-05-11T19:35:12.603Z,1.50
2019-05-11T19:37:41.173Z,2.00
2019-05-11T19:40:10.084Z,2.40
2019-05-11T19:42:53.863Z,2.10
2019-05-11T19:45:22.811Z,2.07
2019-05-11T19:47:57.711Z,2.40
2019-05-11T19:50:25.131Z,2.30
2019-05-11T19:52:53.775Z,2.03
2019-05-11T19:55:22.383Z,2.10
2019-05-11T19:57:51.138Z,2.07
2019-05-11T20:00:19.856Z,2.00
2019-05-11T20:02:48.506Z,1.90
2019-05-11T20:05:18.407Z,1.93
2019-05-11T20:07:48.603Z,1.40
2019-05-11T20:10:18.943Z,2.00
2019-05-11T20:12:51.614Z,1.57
2019-05-11T20:15:19.897Z,1.70
2019-05-11T20:17:48.973Z,1.90
2019-05-11T20:20:18.485Z,1.80
2019-05-11T20:22:48.349Z,1.57
2019-05-11T20:25:18.687Z,1.60
2019-05-11T20:27:48.476Z,2.10
2019-05-11T20:30:18.488Z,1.70
2019-05-11T20:32:48.423Z,1.50
2019-05-11T20:35:17.635Z,1.20
2019-05-11T20:37:46.184Z,1.70
2019-05-11T20:40:14.919Z,1.20
2019-05-11T20:42:43.469Z,1.00
2019-05-11T20:45:12.442Z,1.20
2019-05-11T20:47:41.134Z,1.20
2019-05-11T20:50:11.122Z,0.90
2019-05-11T20:52:41.378Z,1.10
2019-05-11T20:55:10.040Z,0.90
2019-05-11T20:57:39.584Z,0.90
2019-05-11T21:00:11.939Z,1.00
2019-05-11T21:02:40.512Z,1.00
2019-05-11T21:05:09.484Z,0.80
2019-05-11T21:07:38.903Z,1.00
2019-05-11T21:10:08.778Z,0.80
2019-05-11T21:12:38.628Z,0.70
2019-05-11T21:15:11.826Z,0.70
2019-05-11T21:17:40.449Z,0.97
2019-05-11T21:20:09.293Z,1.10
2019-05-11T21:22:40.690Z,0.67
2019-05-11T21:25:09.683Z,0.90
2019-05-11T21:27:38.718Z,0.63
2019-05-11T21:30:09.809Z,1.00
2019-05-11T21:32:39.548Z,0.77
2019-05-11T21:35:09.261Z,0.90
2019-05-11T21:37:38.931Z,0.90
2019-05-11T21:40:09.200Z,0.80
2019-05-11T21:42:39.397Z,0.90
2019-05-11T21:45:10.078Z,0.73
2019-05-11T21:47:39.665Z,0.97
2019-05-11T21:50:09.677Z,0.90
2019-05-11T21:52:38.914Z,0.90
2019-05-11T21:55:09.688Z,0.80
2019-05-11T21:57:38.843Z,0.83
2019-05-11T22:00:09.249Z,1.03
2019-05-11T22:02:38.720Z,0.90
2019-05-11T22:05:08.989Z,0.87
2019-05-11T22:07:38.706Z,0.93
2019-05-11T22:10:09.291Z,1.13
2019-05-11T22:12:38.998Z,1.07
2019-05-11T22:15:09.615Z,1.30
2019-05-11T22:17:39.686Z,1.30
2019-05-11T22:20:09.565Z,1.10
2019-05-11T22:22:39.057Z,1.40
2019-05-11T22:25:09.176Z,1.27
2019-05-11T22:27:38.890Z,1.10
2019-05-11T22:30:10.039Z,1.10
2019-05-11T22:32:39.052Z,1.10
2019-05-11T22:35:10.872Z,1.20
2019-05-11T22:37:39.440Z,1.30
2019-05-11T22:40:08.787Z,1.20
2019-05-11T22:42:38.326Z,1.53
2019-05-11T22:45:08.477Z,1.30
2019-05-11T22:47:39.430Z,1.00
2019-05-11T22:50:08.926Z,1.20
2019-05-11T22:52:40.419Z,1.20
2019-05-11T22:55:11.935Z,0.97
2019-05-11T22:57:39.419Z,1.00
2019-05-11T23:00:19.821Z,1.10
2019-05-11T23:02:48.479Z,1.10
2019-05-11T23:05:17.234Z,1.00
2019-05-11T23:07:48.105Z,1.20
2019-05-11T23:10:17.711Z,1.00
2019-05-11T23:12:48.289Z,1.00
2019-05-11T23:15:18.391Z,1.00
2019-05-11T23:17:46.923Z,1.13
2019-05-11T23:20:15.643Z,0.90
2019-05-11T23:22:57.362Z,1.00
2019-05-11T23:25:20.601Z,1.10
2019-05-11T23:27:49.193Z,1.20
2019-05-11T23:30:19.740Z,0.97
2019-05-11T23:32:49.143Z,1.00
2019-05-11T23:35:18.839Z,0.83
2019-05-11T23:37:49.660Z,0.97
2019-05-11T23:40:19.583Z,1.00
2019-05-11T23:42:49.160Z,1.13
2019-05-11T23:45:19.123Z,1.20
2019-05-11T23:47:48.834Z,1.27
2019-05-11T23:50:19.151Z,1.10
2019-05-11T23:52:53.405Z,1.20
2019-05-11T23:55:19.427Z,1.20
2019-05-11T23:57:49.199Z,1.23
